createdAt,value
2017-11-20T00:02:15.298Z,3.73
2017-11-20T00:04:41.602Z,1.83
2017-11-20T00:07:07.906Z,5.63
2017-11-20T00:09:35.002Z,2.80
2017-11-20T00:12:01.295Z,1.37
2017-11-20T00:14:28.332Z,3.10
2017-11-20T00:16:55.392Z,2.83
2017-11-20T00:19:22.430Z,2.53
2017-11-20T00:21:48.710Z,1.97
2017-11-20T00:24:15.003Z,2.90
2017-11-20T00:26:42.043Z,2.30
2017-11-20T00:29:09.081Z,4.63
2017-11-20T00:31:36.118Z,2.80
2017-11-20T00:34:02.419Z,2.93
2017-11-20T00:36:28.712Z,4.87
2017-11-20T00:38:55.003Z,2.70
2017-11-20T00:41:21.277Z,2.93
2017-11-20T00:43:47.568Z,4.17
2017-11-20T00:46:13.846Z,2.90
2017-11-20T00:48:40.131Z,2.30
2017-11-20T00:51:07.183Z,3.70
2017-11-20T00:53:33.481Z,3.50
2017-11-20T00:55:59.762Z,6.80
2017-11-20T00:58:26.786Z,2.50
2017-11-20T01:00:53.830Z,5.10
2017-11-20T01:03:21.600Z,2.50
2017-11-20T01:05:48.647Z,3.13
2017-11-20T01:08:14.914Z,4.30
2017-11-20T01:10:41.206Z,2.00
2017-11-20T01:13:07.491Z,5.70
2017-11-20T01:15:33.784Z,3.53
2017-11-20T01:18:00.815Z,3.67
2017-11-20T01:20:27.111Z,3.40
2017-11-20T01:22:53.404Z,2.17
2017-11-20T01:25:19.694Z,3.10
2017-11-20T01:27:46.007Z,7.07
2017-11-20T01:30:12.327Z,2.50
2017-11-20T01:32:38.610Z,3.40
2017-11-20T01:35:05.655Z,4.50
2017-11-20T01:37:31.959Z,3.80
2017-11-20T01:39:59.024Z,3.77
2017-11-20T01:42:26.071Z,3.60
2017-11-20T01:44:53.132Z,3.10
2017-11-20T01:47:19.456Z,2.80
2017-11-20T01:49:45.748Z,3.00
2017-11-20T01:52:12.049Z,2.77
2017-11-20T01:54:38.343Z,5.30
2017-11-20T01:57:05.384Z,2.67
2017-11-20T01:59:32.427Z,6.97
2017-11-20T02:01:59.495Z,4.23
2017-11-20T02:04:25.810Z,5.37
2017-11-20T02:06:52.133Z,2.33
2017-11-20T02:09:18.454Z,7.40
2017-11-20T02:11:47.067Z,7.30
2017-11-20T02:14:14.332Z,4.63
2017-11-20T02:16:40.634Z,8.43
2017-11-20T02:19:07.689Z,4.60
2017-11-20T02:21:34.025Z,5.90
2017-11-20T02:24:00.331Z,6.80
2017-11-20T02:26:27.398Z,4.93
2017-11-20T02:28:53.715Z,2.50
2017-11-20T02:31:20.050Z,5.43
2017-11-20T02:33:46.365Z,5.20
2017-11-20T02:36:12.680Z,4.87
2017-11-20T02:38:39.000Z,5.70
2017-11-20T02:41:05.305Z,4.20
2017-11-20T02:43:31.635Z,4.47
2017-11-20T02:45:57.955Z,6.30
2017-11-20T02:48:24.281Z,4.47
2017-11-20T02:50:50.579Z,5.63
2017-11-20T02:53:17.658Z,4.83
2017-11-20T02:55:43.974Z,5.53
2017-11-20T02:58:10.314Z,5.70
2017-11-20T03:00:36.681Z,4.87
2017-11-20T03:03:03.027Z,6.17
2017-11-20T03:05:29.347Z,6.10
2017-11-20T03:07:55.862Z,5.33
2017-11-20T03:10:22.245Z,10.43
2017-11-20T03:12:49.304Z,2.77
2017-11-20T03:15:16.332Z,3.80
2017-11-20T03:17:43.410Z,4.27
2017-11-20T03:20:09.735Z,9.87
2017-11-20T03:22:36.070Z,6.83
2017-11-20T03:25:02.408Z,5.17
2017-11-20T03:27:28.730Z,3.20
2017-11-20T03:29:55.035Z,3.00
2017-11-20T03:32:21.322Z,5.30
2017-11-20T03:34:47.653Z,5.70
2017-11-20T03:37:13.960Z,5.53
2017-11-20T03:39:40.282Z,6.27
2017-11-20T03:42:06.604Z,6.10
2017-11-20T03:44:32.924Z,4.73
2017-11-20T03:46:59.227Z,5.90
2017-11-20T03:49:27.038Z,4.63
2017-11-20T03:51:53.348Z,6.83
2017-11-20T03:54:20.418Z,5.93
2017-11-20T03:56:46.746Z,4.83
2017-11-20T03:59:13.069Z,7.27
2017-11-20T04:01:39.367Z,8.93
2017-11-20T04:04:05.662Z,9.17
2017-11-20T04:06:31.960Z,4.80
2017-11-20T04:08:59.004Z,4.20
2017-11-20T04:11:26.019Z,9.00
2017-11-20T04:13:52.303Z,6.17
2017-11-20T04:16:18.582Z,6.77
2017-11-20T04:18:44.897Z,6.50
2017-11-20T04:21:11.180Z,5.30
2017-11-20T04:23:37.486Z,6.50
2017-11-20T04:26:04.542Z,2.90
2017-11-20T04:28:31.578Z,5.67
2017-11-20T04:30:58.643Z,5.80
2017-11-20T04:33:24.979Z,8.17
2017-11-20T04:35:51.302Z,5.27
2017-11-20T04:38:17.613Z,2.83
2017-11-20T04:40:44.654Z,5.77
2017-11-20T04:43:11.705Z,6.07
2017-11-20T04:45:38.015Z,6.17
2017-11-20T04:48:04.338Z,5.00
2017-11-20T04:50:30.633Z,3.83
2017-11-20T04:52:56.945Z,8.07
2017-11-20T04:55:23.278Z,4.63
2017-11-20T04:57:49.586Z,4.60
2017-11-20T05:00:16.653Z,6.00
2017-11-20T05:02:42.955Z,6.47
2017-11-20T05:05:09.271Z,5.40
2017-11-20T05:07:35.544Z,8.70
2017-11-20T05:10:01.835Z,8.07
2017-11-20T05:12:28.149Z,4.50
2017-11-20T05:14:54.444Z,7.17
2017-11-20T05:17:20.748Z,5.80
2017-11-20T05:19:47.062Z,7.00
2017-11-20T05:22:14.106Z,5.00
2017-11-20T05:24:40.399Z,10.53
2017-11-20T05:27:06.695Z,9.00
2017-11-20T05:29:33.727Z,3.30
2017-11-20T05:32:00.766Z,10.43
2017-11-20T05:34:27.048Z,10.60
2017-11-20T05:36:53.358Z,10.10
2017-11-20T05:39:19.638Z,8.73
2017-11-20T05:41:45.930Z,9.70
2017-11-20T05:44:12.212Z,10.27
2017-11-20T05:46:38.510Z,8.20
2017-11-20T05:49:04.791Z,10.90
2017-11-20T05:51:31.807Z,8.80
2017-11-20T05:53:58.087Z,9.10
2017-11-20T05:56:24.367Z,9.53
2017-11-20T05:58:51.414Z,13.00
2017-11-20T06:01:18.444Z,8.27
2017-11-20T06:03:44.732Z,9.50
2017-11-20T06:06:11.018Z,12.50
2017-11-20T06:08:37.320Z,9.57
2017-11-20T06:11:03.607Z,10.33
2017-11-20T06:13:30.637Z,10.77
2017-11-20T06:15:56.934Z,16.03
2017-11-20T06:18:23.238Z,12.50
2017-11-20T06:20:49.522Z,13.27
2017-11-20T06:23:15.803Z,9.57
2017-11-20T06:25:42.081Z,11.73
2017-11-20T06:28:09.129Z,10.87
2017-11-20T06:30:35.424Z,16.10
2017-11-20T06:33:01.720Z,12.27
2017-11-20T06:35:28.028Z,12.07
2017-11-20T06:37:55.051Z,11.33
2017-11-20T06:40:21.352Z,9.77
2017-11-20T06:42:47.629Z,8.03
2017-11-20T06:45:13.928Z,15.80
2017-11-20T06:47:40.336Z,8.33
2017-11-20T06:50:07.504Z,8.33
2017-11-20T06:52:33.793Z,11.70
2017-11-20T06:55:00.087Z,12.13
2017-11-20T06:57:27.134Z,9.90
2017-11-20T06:59:53.445Z,10.37
2017-11-20T07:02:19.725Z,18.67
2017-11-20T07:04:46.046Z,8.23
2017-11-20T07:07:13.095Z,11.00
2017-11-20T07:09:40.158Z,11.57
2017-11-20T07:12:06.460Z,11.57
2017-11-20T07:14:33.511Z,8.77
2017-11-20T07:17:00.537Z,8.43
2017-11-20T07:19:26.824Z,12.40
2017-11-20T07:21:53.125Z,11.10
2017-11-20T07:24:20.176Z,11.90
2017-11-20T07:26:59.755Z,13.80
2017-11-20T07:29:38.471Z,13.60
2017-11-20T07:32:05.474Z,13.13
2017-11-20T07:34:45.016Z,10.20
2017-11-20T07:37:23.779Z,12.53
2017-11-20T07:40:03.355Z,10.93
2017-11-20T07:42:29.590Z,10.43
2017-11-20T07:44:56.636Z,15.50
2017-11-20T07:47:22.957Z,14.40
2017-11-20T07:49:50.035Z,11.07
2017-11-20T07:52:16.362Z,18.57
2017-11-20T07:54:42.765Z,14.23
2017-11-20T07:57:09.094Z,12.03
2017-11-20T07:59:35.403Z,10.73
2017-11-20T08:02:01.749Z,12.20
2017-11-20T08:04:28.053Z,11.57
2017-11-20T08:06:54.351Z,14.17
2017-11-20T08:09:21.394Z,12.20
2017-11-20T08:11:47.710Z,10.50
2017-11-20T08:14:14.040Z,12.37
2017-11-20T08:16:40.370Z,16.10
2017-11-20T08:19:07.416Z,15.10
2017-11-20T08:21:34.486Z,10.47
2017-11-20T08:24:00.812Z,10.17
2017-11-20T08:26:27.841Z,13.47
2017-11-20T08:28:54.902Z,13.40
2017-11-20T08:31:21.938Z,13.23
2017-11-20T08:33:48.995Z,11.50
2017-11-20T08:36:16.038Z,17.47
2017-11-20T08:38:43.098Z,11.73
2017-11-20T08:41:09.397Z,8.20
2017-11-20T08:43:35.725Z,9.63
2017-11-20T08:46:02.029Z,16.27
2017-11-20T08:48:28.339Z,13.80
2017-11-20T08:50:54.715Z,13.77
2017-11-20T08:53:21.052Z,8.97
2017-11-20T08:55:47.378Z,11.17
2017-11-20T08:58:13.689Z,8.73
2017-11-20T09:00:40.791Z,11.00
2017-11-20T09:03:07.099Z,10.50
2017-11-20T09:05:34.190Z,13.17
2017-11-20T09:08:00.501Z,10.87
2017-11-20T09:10:26.819Z,9.83
2017-11-20T09:12:53.163Z,9.37
2017-11-20T09:15:19.498Z,9.27
2017-11-20T09:17:45.822Z,11.73
2017-11-20T09:20:12.154Z,8.40
2017-11-20T09:22:38.458Z,9.73
2017-11-20T09:25:05.530Z,12.77
2017-11-20T09:27:31.849Z,13.87
2017-11-20T09:29:58.935Z,13.27
2017-11-20T09:32:25.267Z,16.57
2017-11-20T09:34:51.597Z,10.97
2017-11-20T09:37:17.915Z,7.10
2017-11-20T09:39:44.228Z,15.27
2017-11-20T09:42:10.565Z,12.63
2017-11-20T09:44:36.892Z,13.90
2017-11-20T09:47:03.942Z,9.97
2017-11-20T09:49:30.273Z,12.23
2017-11-20T09:51:56.631Z,12.20
2017-11-20T09:54:22.985Z,10.63
2017-11-20T09:56:50.091Z,13.37
2017-11-20T09:59:16.412Z,8.03
2017-11-20T10:01:43.500Z,14.10
2017-11-20T10:04:09.839Z,10.00
2017-11-20T10:06:36.176Z,11.13
2017-11-20T10:09:03.251Z,9.73
2017-11-20T10:11:30.329Z,9.97
2017-11-20T10:13:56.681Z,9.13
2017-11-20T10:16:23.057Z,13.77
2017-11-20T10:18:50.128Z,13.67
2017-11-20T10:21:16.461Z,8.70
2017-11-20T10:23:42.796Z,10.33
2017-11-20T10:26:09.132Z,10.10
2017-11-20T10:28:35.473Z,7.90
2017-11-20T10:31:01.803Z,7.83
2017-11-20T10:33:28.201Z,9.10
2017-11-20T10:35:54.539Z,10.07
2017-11-20T10:38:20.888Z,12.43
2017-11-20T10:40:47.223Z,9.70
2017-11-20T10:43:13.555Z,6.67
2017-11-20T10:45:39.913Z,9.40
2017-11-20T10:48:07.002Z,9.90
2017-11-20T10:50:33.339Z,7.50
2017-11-20T10:52:59.670Z,12.67
2017-11-20T10:55:25.991Z,8.73
2017-11-20T10:57:52.332Z,7.53
2017-11-20T11:00:18.653Z,8.80
2017-11-20T11:02:44.989Z,10.40
2017-11-20T11:05:11.330Z,11.27
2017-11-20T11:07:39.189Z,7.90
2017-11-20T11:10:05.529Z,8.27
2017-11-20T11:12:31.881Z,8.43
2017-11-20T11:14:58.198Z,9.30
2017-11-20T11:17:24.537Z,8.13
2017-11-20T11:19:50.888Z,12.73
2017-11-20T11:22:17.235Z,7.90
2017-11-20T11:24:44.352Z,7.23
2017-11-20T11:27:10.688Z,9.07
2017-11-20T11:29:37.009Z,10.60
2017-11-20T11:32:03.352Z,8.70
2017-11-20T11:34:29.675Z,8.90
2017-11-20T11:36:55.997Z,8.87
2017-11-20T11:39:22.346Z,9.73
2017-11-20T11:41:48.681Z,9.97
2017-11-20T11:44:15.019Z,7.87
2017-11-20T11:46:42.102Z,7.43
2017-11-20T11:49:08.428Z,9.77
2017-11-20T11:51:34.744Z,10.90
2017-11-20T11:54:01.824Z,8.20
2017-11-20T11:56:28.149Z,9.00
2017-11-20T11:58:54.523Z,7.53
2017-11-20T12:01:20.847Z,7.67
2017-11-20T12:03:47.192Z,8.10
2017-11-20T12:06:14.291Z,6.80
2017-11-20T12:08:40.622Z,8.33
2017-11-20T12:11:06.967Z,5.60
2017-11-20T12:13:33.361Z,7.53
2017-11-20T12:15:59.787Z,7.67
2017-11-20T12:18:26.135Z,7.03
2017-11-20T12:20:52.639Z,6.90
2017-11-20T12:23:19.718Z,7.70
2017-11-20T12:25:46.064Z,14.20
2017-11-20T12:28:12.388Z,6.87
2017-11-20T12:30:38.776Z,6.37
2017-11-20T12:33:05.900Z,7.37
2017-11-20T12:35:32.244Z,5.83
2017-11-20T12:37:58.557Z,6.10
2017-11-20T12:40:24.904Z,7.43
2017-11-20T12:42:51.996Z,9.03
2017-11-20T12:45:18.410Z,6.00
2017-11-20T12:47:45.514Z,8.67
2017-11-20T12:50:11.885Z,8.53
2017-11-20T12:52:38.273Z,9.27
2017-11-20T12:55:04.625Z,10.13
2017-11-20T12:57:31.026Z,7.43
2017-11-20T12:59:57.343Z,8.63
2017-11-20T13:02:23.739Z,8.17
2017-11-20T13:04:50.822Z,7.10
2017-11-20T13:07:17.250Z,8.30
2017-11-20T13:09:43.591Z,7.00
2017-11-20T13:12:09.947Z,11.10
2017-11-20T13:14:36.394Z,7.67
2017-11-20T13:17:02.745Z,9.17
2017-11-20T13:19:29.820Z,8.30
2017-11-20T13:21:56.163Z,8.33
2017-11-20T13:24:22.489Z,9.50
2017-11-20T13:26:48.818Z,10.20
2017-11-20T13:29:15.138Z,9.17
2017-11-20T13:31:41.494Z,10.27
2017-11-20T13:34:07.833Z,9.83
2017-11-20T13:36:34.173Z,10.27
2017-11-20T13:39:00.511Z,8.93
2017-11-20T13:41:26.863Z,9.63
2017-11-20T13:43:53.184Z,8.33
2017-11-20T13:46:19.528Z,8.07
2017-11-20T13:48:46.628Z,10.83
2017-11-20T13:51:12.963Z,8.33
2017-11-20T13:53:39.323Z,10.43
2017-11-20T13:56:05.657Z,7.70
2017-11-20T13:58:31.993Z,7.37
2017-11-20T14:00:59.065Z,6.10
2017-11-20T14:03:26.121Z,6.50
2017-11-20T14:05:52.445Z,5.10
2017-11-20T14:08:18.818Z,6.77
2017-11-20T14:10:45.164Z,5.77
2017-11-20T14:13:12.972Z,5.20
2017-11-20T14:15:39.337Z,4.40
2017-11-20T14:18:05.657Z,10.03
2017-11-20T14:20:32.000Z,5.80
2017-11-20T14:22:58.323Z,5.87
2017-11-20T14:25:24.659Z,9.23
2017-11-20T14:27:50.980Z,6.30
2017-11-20T14:30:17.298Z,4.10
2017-11-20T14:32:43.621Z,6.30
2017-11-20T14:35:09.953Z,5.57
2017-11-20T14:37:36.279Z,9.10
2017-11-20T14:40:02.624Z,4.90
2017-11-20T14:42:28.946Z,5.57
2017-11-20T14:44:55.302Z,6.40
2017-11-20T14:47:21.628Z,5.27
2017-11-20T14:49:47.949Z,5.87
2017-11-20T14:52:19.319Z,6.90
2017-11-20T14:54:45.630Z,7.10
2017-11-20T14:57:11.972Z,5.60
2017-11-20T14:59:38.292Z,5.80
2017-11-20T15:02:04.634Z,6.23
2017-11-20T15:04:30.957Z,9.23
2017-11-20T15:06:57.296Z,6.07
2017-11-20T15:09:23.614Z,6.33
2017-11-20T15:11:49.964Z,8.77
2017-11-20T15:14:16.300Z,6.57
2017-11-20T15:16:42.642Z,7.40
2017-11-20T15:19:09.716Z,8.43
2017-11-20T15:21:36.814Z,9.53
2017-11-20T15:24:03.171Z,8.77
2017-11-20T15:26:29.505Z,8.13
2017-11-20T15:28:56.569Z,6.20
2017-11-20T15:31:23.621Z,6.67
2017-11-20T15:33:50.720Z,5.33
2017-11-20T15:36:17.048Z,5.20
2017-11-20T15:38:43.392Z,5.03
2017-11-20T15:41:09.738Z,4.70
2017-11-20T15:43:36.049Z,5.00
2017-11-20T15:46:02.339Z,6.23
2017-11-20T15:48:28.671Z,5.47
2017-11-20T15:50:54.979Z,6.17
2017-11-20T15:53:22.022Z,6.20
2017-11-20T15:55:49.075Z,6.30
2017-11-20T15:58:16.121Z,5.50
2017-11-20T16:00:42.437Z,6.63
2017-11-20T16:03:09.518Z,6.90
2017-11-20T16:05:35.820Z,7.03
2017-11-20T16:08:02.142Z,8.13
2017-11-20T16:10:28.444Z,9.57
2017-11-20T16:12:54.801Z,8.53
2017-11-20T16:15:21.103Z,8.17
2017-11-20T16:17:47.410Z,8.10
2017-11-20T16:20:13.719Z,7.30
2017-11-20T16:22:40.778Z,7.63
2017-11-20T16:25:07.099Z,9.33
2017-11-20T16:27:34.168Z,9.23
2017-11-20T16:30:00.471Z,7.93
2017-11-20T16:32:26.801Z,10.07
2017-11-20T16:34:53.118Z,9.80
2017-11-20T16:37:20.155Z,9.53
2017-11-20T16:39:46.486Z,8.17
2017-11-20T16:42:12.783Z,10.33
2017-11-20T16:44:39.085Z,12.67
2017-11-20T16:47:05.442Z,13.37
2017-11-20T16:49:31.775Z,11.33
2017-11-20T16:51:58.082Z,11.73
2017-11-20T16:54:24.401Z,10.63
2017-11-20T16:57:03.039Z,10.27
2017-11-20T16:59:30.076Z,10.07
2017-11-20T17:02:00.299Z,11.80
2017-11-20T17:04:26.619Z,9.60
2017-11-20T17:06:53.670Z,9.17
2017-11-20T17:09:20.003Z,12.90
2017-11-20T17:11:46.313Z,10.63
2017-11-20T17:14:12.661Z,9.93
2017-11-20T17:16:38.951Z,10.33
2017-11-20T17:19:05.246Z,10.70
2017-11-20T17:21:32.301Z,11.50
2017-11-20T17:23:58.947Z,10.90
2017-11-20T17:26:25.254Z,10.07
2017-11-20T17:28:51.558Z,11.87
2017-11-20T17:31:18.604Z,12.10
2017-11-20T17:33:44.931Z,11.40
2017-11-20T17:36:11.996Z,11.40
2017-11-20T17:38:38.311Z,12.73
2017-11-20T17:41:05.378Z,14.03
2017-11-20T17:43:31.668Z,11.77
2017-11-20T17:45:57.978Z,13.80
2017-11-20T17:48:24.278Z,15.07
2017-11-20T17:50:50.570Z,16.63
2017-11-20T17:53:17.603Z,17.47
2017-11-20T17:55:44.647Z,17.60
2017-11-20T17:58:10.966Z,18.30
2017-11-20T18:00:37.332Z,18.80
2017-11-20T18:03:03.743Z,22.90
2017-11-20T18:05:31.041Z,18.63
2017-11-20T18:07:58.322Z,16.50
2017-11-20T18:10:24.618Z,17.60
2017-11-20T18:12:50.920Z,16.73
2017-11-20T18:15:17.997Z,16.53
2017-11-20T18:17:44.403Z,16.50
2017-11-20T18:20:10.733Z,19.17
2017-11-20T18:22:37.062Z,18.70
2017-11-20T18:25:03.553Z,17.63
2017-11-20T18:27:29.885Z,15.43
2017-11-20T18:29:56.186Z,17.40
2017-11-20T18:32:22.605Z,17.10
2017-11-20T18:34:48.972Z,15.63
2017-11-20T18:37:16.071Z,21.27
2017-11-20T18:39:43.152Z,18.63
2017-11-20T18:42:09.463Z,18.67
2017-11-20T18:44:35.765Z,19.83
2017-11-20T18:47:02.069Z,18.83
2017-11-20T18:49:28.382Z,20.33
2017-11-20T18:51:54.733Z,17.63
2017-11-20T18:54:21.048Z,18.53
2017-11-20T18:56:47.376Z,20.37
2017-11-20T18:59:13.695Z,20.63
2017-11-20T19:01:52.424Z,21.00
2017-11-20T19:04:45.987Z,19.87
2017-11-20T19:07:24.597Z,18.87
2017-11-20T19:09:51.627Z,20.23
2017-11-20T19:12:17.965Z,19.70
2017-11-20T19:14:44.291Z,19.03
2017-11-20T19:17:10.614Z,19.33
2017-11-20T19:19:36.951Z,21.43
2017-11-20T19:22:03.342Z,18.23
2017-11-20T19:24:29.722Z,20.00
2017-11-20T19:26:56.100Z,16.90
2017-11-20T19:29:23.226Z,19.43
2017-11-20T19:31:49.547Z,21.10
2017-11-20T19:34:15.854Z,16.30
2017-11-20T19:36:42.182Z,20.27
2017-11-20T19:39:08.523Z,20.57
2017-11-20T19:41:34.840Z,19.77
2017-11-20T19:44:01.192Z,18.40
2017-11-20T19:46:27.521Z,19.47
2017-11-20T19:48:53.810Z,18.97
2017-11-20T19:51:20.873Z,18.80
2017-11-20T19:53:47.905Z,18.70
2017-11-20T19:56:14.967Z,19.07
2017-11-20T19:58:41.996Z,18.73
2017-11-20T20:01:09.039Z,18.97
2017-11-20T20:03:42.593Z,17.67
2017-11-20T20:06:08.917Z,18.47
2017-11-20T20:08:35.248Z,19.77
2017-11-20T20:11:01.555Z,19.90
2017-11-20T20:13:40.331Z,20.17
2017-11-20T20:16:17.717Z,18.33
2017-11-20T20:18:44.321Z,17.80
2017-11-20T20:21:10.680Z,19.00
2017-11-20T20:23:37.015Z,19.30
2017-11-20T20:26:03.691Z,18.50
2017-11-20T20:28:30.000Z,19.50
2017-11-20T20:30:56.323Z,19.87
2017-11-20T20:33:22.641Z,19.80
2017-11-20T20:35:49.309Z,19.97
2017-11-20T20:38:15.613Z,20.03
2017-11-20T20:40:41.910Z,20.50
2017-11-20T20:43:08.265Z,20.10
2017-11-20T20:45:34.581Z,21.00
2017-11-20T20:48:00.874Z,21.97
2017-11-20T20:50:27.903Z,20.53
2017-11-20T20:52:54.991Z,22.70
2017-11-20T20:55:21.404Z,20.13
2017-11-20T20:57:48.489Z,21.60
2017-11-20T21:00:14.811Z,21.27
2017-11-20T21:02:41.503Z,23.87
2017-11-20T21:05:08.542Z,23.50
2017-11-20T21:07:34.820Z,24.07
2017-11-20T21:10:07.286Z,24.80
2017-11-20T21:12:33.647Z,24.43
2017-11-20T21:14:59.968Z,21.50
2017-11-20T21:17:26.261Z,21.30
2017-11-20T21:19:52.598Z,21.17
2017-11-20T21:22:19.613Z,23.10
2017-11-20T21:24:46.709Z,20.80
2017-11-20T21:27:13.048Z,22.30
2017-11-20T21:29:39.339Z,23.50
2017-11-20T21:32:06.535Z,23.07
2017-11-20T21:34:32.889Z,22.00
2017-11-20T21:36:59.230Z,21.40
2017-11-20T21:39:26.337Z,23.33
2017-11-20T21:41:52.670Z,23.07
2017-11-20T21:44:18.976Z,24.13
2017-11-20T21:46:45.291Z,23.00
2017-11-20T21:49:12.329Z,25.77
2017-11-20T21:51:38.682Z,24.80
2017-11-20T21:54:04.968Z,25.07
2017-11-20T21:56:31.303Z,25.40
2017-11-20T21:58:58.354Z,24.83
2017-11-20T22:01:25.429Z,24.70
2017-11-20T22:03:52.649Z,25.93
2017-11-20T22:06:19.007Z,25.90
2017-11-20T22:08:46.080Z,26.97
2017-11-20T22:11:12.404Z,26.10
2017-11-20T22:13:38.721Z,28.30
2017-11-20T22:16:05.049Z,27.30
2017-11-20T22:18:31.363Z,25.93
2017-11-20T22:20:57.679Z,28.07
2017-11-20T22:23:24.000Z,27.33
2017-11-20T22:25:50.322Z,29.40
2017-11-20T22:28:16.628Z,28.10
2017-11-20T22:30:42.943Z,32.50
2017-11-20T22:33:09.273Z,31.00
2017-11-20T22:35:35.575Z,30.80
2017-11-20T22:38:02.640Z,31.07
2017-11-20T22:40:28.945Z,32.10
2017-11-20T22:42:55.273Z,32.70
2017-11-20T22:45:21.576Z,33.60
2017-11-20T22:47:47.922Z,34.03
2017-11-20T22:50:14.238Z,32.70
2017-11-20T22:52:40.593Z,31.80
2017-11-20T22:55:06.881Z,31.00
2017-11-20T22:57:33.212Z,30.60
2017-11-20T22:59:59.525Z,32.60
2017-11-20T23:02:25.862Z,31.87
2017-11-20T23:04:52.170Z,30.03
2017-11-20T23:07:19.212Z,29.70
2017-11-20T23:09:45.535Z,30.40
2017-11-20T23:12:13.439Z,30.20
2017-11-20T23:14:39.761Z,31.40
2017-11-20T23:17:06.084Z,29.30
2017-11-20T23:19:32.410Z,27.10
2017-11-20T23:21:58.728Z,27.43
2017-11-20T23:24:25.051Z,26.37
2017-11-20T23:26:52.116Z,29.90
2017-11-20T23:29:18.413Z,25.83
2017-11-20T23:31:46.185Z,29.33
2017-11-20T23:34:13.257Z,27.57
2017-11-20T23:36:39.552Z,30.03
2017-11-20T23:39:05.852Z,29.90
2017-11-20T23:41:32.142Z,28.80
2017-11-20T23:43:58.460Z,28.07
2017-11-20T23:46:25.504Z,28.90
2017-11-20T23:48:52.546Z,27.37
2017-11-20T23:51:19.595Z,28.63
2017-11-20T23:53:45.884Z,27.60
2017-11-20T23:56:12.190Z,26.20
2017-11-20T23:58:38.479Z,27.70
